Argana, Spain

4:26 AM WET on January 21, 2017 (GMT +0000)
tinasoria | | Change Station

Elev 154 ft 28.98 °N, 13.55 °W | Updated 9 minutes ago

Partly Cloudy
Partly Cloudy
57.2 °F
Feels Like 57.2 °F
N
3.0
Wind Variable Wind from North
Gusts 4.0 mph

Today
High -- | Low -- °F
--% Chance of Precip.
Yesterday
High -- | Low -- °F
Precip. -- in
Pressure 30.12 in
Visibility 6.2 miles
Clouds
Dew Point 52 °F
Humidity 83%
Rainfall 0.00 in
Snow Depth Not available.
7:47 AM 6:24 PM
Last Quarter, 38% visible
METAR GCFV 210400Z AUTO VRB01KT 9999 NCD 14/12 Q1020
Pressure 30.12 in
Visibility 6.2 miles
Clouds
Dew Point 52 °F
Humidity 83%
Rainfall 0.00 in
Snow Depth Not available.
7:47 AM 6:24 PM
Last Quarter, 38% visible
METAR GCFV 210400Z AUTO VRB01KT 9999 NCD 14/12 Q1020

Get Your Daily Forecast Email!

Thanks for signing up!

Be on the lookout for a verification email in your inbox.

You'll start receiving the daily forecast at 8 AM.

×

10-Day Weather Forecast

×

Almanac

Astronomy

Jan. 21, 2017 Rise Set
Actual Time
Civil Twilight
Nautical Twilight
Astronomical Twilight
Moon
Length of Visible Light
Length of Day
Tomorrow will be .
, % of the Moon is Illuminated

Today's Extremes

Country Highs Country Lows

Community

WunderPhotos

Upload Photos

1,962,540 photos uploaded!

WunderBlog® & News

Nearby

Air Quality

  Air Quality AQ Index Pollutant
Not available.

Snow Depth

Station Depth Elevation

Earthquake Activity

City Distance Mag. Time & Date
Minimum magnitude displayed is 2.5.

Coastal Water Temperatures

Place Temperature

Stations

Nearby Weather Stations

Station Location Temp. Windchill Dew Point Humidity Wind Precip. Elev Updated Type